Time;durP1;ratioP1;P1;durP2;ratioP2;P2;SDS_P1;SDS_P2;PMS_P1;PMS_P2;Temp;Humidity;BMP_temperature;BMP_pressure;BME280_temperature;BME280_humidity;BME280_pressure;Samples;Min_cycle;Max_cycle;Signal;HPM_P1;HPM_P2
2023/06/10 00:00:59;;;;;;;6.15;3.03;;;;;;;;;;5106020;28;20525;-75
2023/06/10 00:03:31;;;;;;;7.90;2.65;;;;;;;;;;5106283;28;20047;-76
2023/06/10 00:06:03;;;;;;;4.65;2.30;;;;;;;;;;5105379;28;20036;-75
2023/06/10 00:08:33;;;;;;;7.18;2.50;;;;;;;;;;5105361;28;20046;-73
2023/06/10 00:11:04;;;;;;;4.78;2.10;;;;;;;;;;5087923;28;20044;-74
2023/06/10 00:13:37;;;;;;;6.22;3.20;;;;;;;;;;5106125;28;20048;-74
2023/06/10 00:16:07;;;;;;;8.20;2.58;;;;;;;;;;5106075;28;20051;-74
2023/06/10 00:18:38;;;;;;;9.10;2.60;;;;;;;;;;5105540;28;20043;-74
2023/06/10 00:21:08;;;;;;;22.63;2.90;;;;;;;;;;5105924;28;20056;-75
2023/06/10 00:23:41;;;;;;;15.98;3.00;;;;;;;;;;5105737;28;20526;-75
2023/06/10 00:26:13;;;;;;;21.65;3.25;;;;;;;;;;5106052;28;20039;-74
2023/06/10 00:28:46;;;;;;;11.50;2.40;;;;;;;;;;5105604;28;20046;-74
2023/06/10 00:31:17;;;;;;;14.90;2.75;;;;;;;;;;5105569;28;20047;-75
2023/06/10 00:33:51;;;;;;;25.52;2.95;;;;;;;;;;5105841;28;20396;-75
2023/06/10 00:36:22;;;;;;;12.07;2.50;;;;;;;;;;5105551;28;20544;-74
2023/06/10 00:38:53;;;;;;;11.95;3.50;;;;;;;;;;5105261;28;20070;-75
2023/06/10 00:41:23;;;;;;;21.27;3.25;;;;;;;;;;5105195;28;20051;-74
2023/06/10 00:43:54;;;;;;;19.15;3.03;;;;;;;;;;5105231;28;20047;-74
2023/06/10 00:46:27;;;;;;;18.30;3.42;;;;;;;;;;5105796;28;20054;-73
2023/06/10 00:48:58;;;;;;;13.23;2.55;;;;;;;;;;5105919;28;20032;-73
2023/06/10 00:51:29;;;;;;;21.20;3.30;;;;;;;;;;5086675;28;20080;-74
2023/06/10 00:53:59;;;;;;;12.25;3.17;;;;;;;;;;5105462;28;20059;-76
2023/06/10 00:56:31;;;;;;;18.38;2.92;;;;;;;;;;5105145;28;20507;-74
2023/06/10 00:59:02;;;;;;;10.70;3.10;;;;;;;;;;5085350;28;20051;-75
2023/06/10 01:01:34;;;;;;;13.05;2.83;;;;;;;;;;5104429;28;20054;-74
2023/06/10 01:04:09;;;;;;;12.68;2.92;;;;;;;;;;5088163;28;20421;-74
2023/06/10 01:06:57;;;;;;;13.48;3.67;;;;;;;;;;5093251;28;20056;-75
2023/06/10 01:09:52;;;;;;;9.85;2.55;;;;;;;;;;5093062;28;20802;-76
2023/06/10 01:12:29;;;;;;;7.88;2.88;;;;;;;;;;5102976;28;20059;-75
2023/06/10 01:15:03;;;;;;;28.35;3.50;;;;;;;;;;5111913;28;20422;-74
2023/06/10 01:17:51;;;;;;;24.80;3.35;;;;;;;;;;5093608;28;20051;-75
2023/06/10 01:20:22;;;;;;;38.65;3.53;;;;;;;;;;5112329;28;20040;-74
2023/06/10 01:22:57;;;;;;;14.13;2.85;;;;;;;;;;5112346;28;20059;-76
2023/06/10 01:25:32;;;;;;;5.25;2.55;;;;;;;;;;5112610;28;20056;-75
2023/06/10 01:28:19;;;;;;;11.98;3.17;;;;;;;;;;5112255;28;20074;-74
2023/06/10 01:31:21;;;;;;;7.18;2.90;;;;;;;;;;5112034;28;20448;-75
2023/06/10 01:33:53;;;;;;;9.65;2.65;;;;;;;;;;5093704;28;20613;-76
2023/06/10 01:36:25;;;;;;;9.45;2.55;;;;;;;;;;5112562;28;20062;-75
2023/06/10 01:38:57;;;;;;;18.92;2.67;;;;;;;;;;5112462;28;20046;-76
2023/06/10 01:41:28;;;;;;;7.97;2.90;;;;;;;;;;5111841;28;20043;-81
2023/06/10 01:43:59;;;;;;;11.68;3.10;;;;;;;;;;5111392;28;20043;-75
2023/06/10 01:46:30;;;;;;;13.38;3.65;;;;;;;;;;5093233;28;20052;-74
2023/06/10 01:49:00;;;;;;;13.45;3.35;;;;;;;;;;5092996;28;20510;-75
2023/06/10 01:51:32;;;;;;;14.32;3.00;;;;;;;;;;5114793;28;20409;-74
2023/06/10 01:54:02;;;;;;;9.68;2.63;;;;;;;;;;5093150;28;20048;-80
2023/06/10 01:56:33;;;;;;;12.50;2.55;;;;;;;;;;5112145;28;20070;-75
2023/06/10 01:59:06;;;;;;;11.57;3.10;;;;;;;;;;5093235;28;20643;-75
2023/06/10 02:01:36;;;;;;;7.45;2.72;;;;;;;;;;5111327;28;20052;-75
2023/06/10 02:04:07;;;;;;;14.65;3.00;;;;;;;;;;5111457;28;20051;-76
2023/06/10 02:06:38;;;;;;;7.18;3.05;;;;;;;;;;5111839;28;20056;-75
2023/06/10 02:09:09;;;;;;;9.45;2.58;;;;;;;;;;5111319;28;20058;-75
2023/06/10 02:11:39;;;;;;;13.93;2.60;;;;;;;;;;5112168;28;20051;-75
2023/06/10 02:14:17;;;;;;;6.10;2.58;;;;;;;;;;5093645;28;20055;-75
2023/06/10 02:16:47;;;;;;;7.13;2.72;;;;;;;;;;5088461;28;20048;-77
2023/06/10 02:19:21;;;;;;;13.02;3.42;;;;;;;;;;5108153;28;20050;-75
2023/06/10 02:21:54;;;;;;;7.85;2.63;;;;;;;;;;5108188;28;20078;-75
2023/06/10 02:24:24;;;;;;;12.32;3.35;;;;;;;;;;5108497;28;20052;-74
2023/06/10 02:26:55;;;;;;;14.52;2.80;;;;;;;;;;5089412;28;20043;-74
2023/06/10 02:29:25;;;;;;;14.48;2.95;;;;;;;;;;5090691;28;20044;-76
2023/06/10 02:31:56;;;;;;;22.52;3.22;;;;;;;;;;5090045;28;20624;-75
2023/06/10 02:34:28;;;;;;;11.02;3.30;;;;;;;;;;5089501;28;20417;-81
2023/06/10 02:37:02;;;;;;;8.93;2.80;;;;;;;;;;5089651;28;20051;-75
2023/06/10 02:39:32;;;;;;;14.95;3.13;;;;;;;;;;5107887;28;20048;-75
2023/06/10 02:42:06;;;;;;;8.82;2.70;;;;;;;;;;5089130;28;20070;-75
2023/06/10 02:44:37;;;;;;;6.53;1.88;;;;;;;;;;5107805;28;20051;-75
2023/06/10 02:47:15;;;;;;;6.82;2.50;;;;;;;;;;5088755;28;20048;-75
2023/06/10 02:49:46;;;;;;;4.82;2.47;;;;;;;;;;5089037;28;20047;-75
2023/06/10 02:52:16;;;;;;;5.78;2.53;;;;;;;;;;5107780;28;20070;-76
2023/06/10 02:54:47;;;;;;;5.20;2.38;;;;;;;;;;5108123;28;20482;-75
2023/06/10 02:57:17;;;;;;;5.03;1.98;;;;;;;;;;5108267;28;20054;-74
2023/06/10 02:59:47;;;;;;;9.02;2.65;;;;;;;;;;5089158;28;20052;-74
2023/06/10 03:02:18;;;;;;;6.28;2.40;;;;;;;;;;5107817;28;20044;-75
2023/06/10 03:04:53;;;;;;;5.38;2.30;;;;;;;;;;5088912;28;20464;-75
2023/06/10 03:07:24;;;;;;;3.08;2.05;;;;;;;;;;5088683;28;20058;-75
2023/06/10 03:09:56;;;;;;;7.07;2.40;;;;;;;;;;5089053;28;20056;-76
2023/06/10 03:12:26;;;;;;;13.52;2.50;;;;;;;;;;5088748;28;20048;-76
2023/06/10 03:14:58;;;;;;;4.15;1.88;;;;;;;;;;5107101;28;20406;-75
2023/06/10 03:17:31;;;;;;;6.28;2.15;;;;;;;;;;5088047;28;20589;-74
2023/06/10 03:20:03;;;;;;;7.97;1.98;;;;;;;;;;5089010;28;20540;-76
2023/06/10 03:22:34;;;;;;;8.00;2.15;;;;;;;;;;5072222;28;20391;-74
2023/06/10 03:25:13;;;;;;;6.82;2.00;;;;;;;;;;5107369;28;20414;-74
2023/06/10 03:27:48;;;;;;;5.03;2.30;;;;;;;;;;5070765;28;20499;-75
2023/06/10 03:30:20;;;;;;;3.80;1.95;;;;;;;;;;5087838;28;20059;-74
2023/06/10 03:32:50;;;;;;;3.97;1.95;;;;;;;;;;5088156;28;20414;-77
2023/06/10 03:35:23;;;;;;;5.38;2.10;;;;;;;;;;5087812;28;20054;-76
2023/06/10 03:37:54;;;;;;;6.55;2.00;;;;;;;;;;5088239;28;20063;-76
2023/06/10 03:40:24;;;;;;;5.15;2.30;;;;;;;;;;5088767;28;20058;-74
2023/06/10 03:42:55;;;;;;;5.72;2.25;;;;;;;;;;5087570;28;20062;-74
2023/06/10 03:45:31;;;;;;;2.67;2.05;;;;;;;;;;5088390;28;20051;-75
2023/06/10 03:48:03;;;;;;;5.63;2.00;;;;;;;;;;5088151;28;20410;-76
2023/06/10 03:50:44;;;;;;;9.02;2.10;;;;;;;;;;5088026;28;20532;-75
2023/06/10 03:53:15;;;;;;;10.25;2.10;;;;;;;;;;5105214;28;20051;-75
2023/06/10 03:55:48;;;;;;;6.47;1.95;;;;;;;;;;5087304;28;20059;-76
2023/06/10 03:58:22;;;;;;;4.28;1.83;;;;;;;;;;5088054;28;20498;-75
2023/06/10 04:00:53;;;;;;;3.30;1.95;;;;;;;;;;5087281;28;20043;-75
2023/06/10 04:03:31;;;;;;;5.05;2.17;;;;;;;;;;5087326;28;20052;-74
2023/06/10 04:06:04;;;;;;;7.55;1.92;;;;;;;;;;5087582;28;20521;-74
2023/06/10 04:08:35;;;;;;;4.18;1.92;;;;;;;;;;5087547;28;20052;-75
2023/06/10 04:11:06;;;;;;;6.40;1.95;;;;;;;;;;5106325;28;20055;-74
2023/06/10 04:13:36;;;;;;;3.67;1.92;;;;;;;;;;5106145;28;20043;-75
2023/06/10 04:16:07;;;;;;;8.73;1.98;;;;;;;;;;5087264;28;20048;-76
2023/06/10 04:18:39;;;;;;;7.03;2.03;;;;;;;;;;5105863;28;20426;-74
2023/06/10 04:21:11;;;;;;;2.70;1.70;;;;;;;;;;5106489;28;20040;-74
2023/06/10 04:23:42;;;;;;;3.28;1.73;;;;;;;;;;5106051;28;20055;-74
2023/06/10 04:26:12;;;;;;;8.77;1.88;;;;;;;;;;5087185;28;20351;-76
2023/06/10 04:28:46;;;;;;;4.75;1.83;;;;;;;;;;5087326;28;20399;-74
2023/06/10 04:31:19;;;;;;;3.97;1.90;;;;;;;;;;5086982;28;20055;-75
2023/06/10 04:33:50;;;;;;;5.60;1.80;;;;;;;;;;5087230;28;20055;-74
2023/06/10 04:36:21;;;;;;;3.45;2.00;;;;;;;;;;5086881;28;20047;-74
2023/06/10 04:38:52;;;;;;;5.93;2.10;;;;;;;;;;5105748;28;20055;-75
2023/06/10 04:41:25;;;;;;;6.43;2.15;;;;;;;;;;5087658;28;20055;-75
2023/06/10 04:43:58;;;;;;;7.47;1.80;;;;;;;;;;5087355;28;20055;-74
2023/06/10 04:46:31;;;;;;;2.97;1.70;;;;;;;;;;5087667;28;20048;-73
2023/06/10 04:49:02;;;;;;;4.38;1.80;;;;;;;;;;5106027;28;20056;-74
2023/06/10 04:51:33;;;;;;;6.20;2.10;;;;;;;;;;5105313;28;20422;-74
2023/06/10 04:54:05;;;;;;;6.45;1.83;;;;;;;;;;5087260;28;20532;-75
2023/06/10 04:56:35;;;;;;;4.93;2.08;;;;;;;;;;5087731;28;20059;-74
2023/06/10 04:59:05;;;;;;;3.97;1.80;;;;;;;;;;5106305;28;20410;-75
2023/06/10 05:01:35;;;;;;;6.43;2.00;;;;;;;;;;5104899;28;20561;-75
2023/06/10 05:04:08;;;;;;;2.67;1.75;;;;;;;;;;5105757;28;20047;-75
2023/06/10 05:06:38;;;;;;;7.63;2.25;;;;;;;;;;5105945;28;20036;-75
2023/06/10 05:09:09;;;;;;;5.70;2.40;;;;;;;;;;5105773;28;20051;-76
2023/06/10 05:11:39;;;;;;;4.40;2.25;;;;;;;;;;5105697;28;20573;-76
2023/06/10 05:14:10;;;;;;;7.38;2.40;;;;;;;;;;5105713;28;20047;-74
2023/06/10 05:16:40;;;;;;;3.03;1.75;;;;;;;;;;5104779;28;20593;-75
2023/06/10 05:19:11;;;;;;;6.53;2.03;;;;;;;;;;5105281;28;20050;-76
2023/06/10 05:21:42;;;;;;;4.13;1.90;;;;;;;;;;5105421;28;20051;-74
2023/06/10 05:24:12;;;;;;;8.40;1.92;;;;;;;;;;5105426;28;20055;-76
2023/06/10 05:26:44;;;;;;;3.92;2.15;;;;;;;;;;5087485;28;20059;-74
2023/06/10 05:29:15;;;;;;;2.72;1.80;;;;;;;;;;5105562;28;20047;-76
2023/06/10 05:31:46;;;;;;;3.80;1.67;;;;;;;;;;5104948;28;20418;-74
2023/06/10 05:34:16;;;;;;;3.05;1.67;;;;;;;;;;5086231;28;20886;-75
2023/06/10 05:36:46;;;;;;;4.30;1.92;;;;;;;;;;5105074;28;20040;-74
2023/06/10 05:39:17;;;;;;;3.50;1.90;;;;;;;;;;5105187;28;20089;-76
2023/06/10 05:41:47;;;;;;;2.33;1.73;;;;;;;;;;5105328;28;20032;-76
2023/06/10 05:44:18;;;;;;;8.15;1.92;;;;;;;;;;5105136;28;20054;-76
2023/06/10 05:46:47;;;;;;;2.97;1.67;;;;;;;;;;5105299;28;20443;-75
2023/06/10 05:49:17;;;;;;;3.45;1.92;;;;;;;;;;5087570;28;20047;-74
2023/06/10 05:51:48;;;;;;;5.10;1.80;;;;;;;;;;5107652;28;20054;-74
2023/06/10 05:54:20;;;;;;;4.03;2.08;;;;;;;;;;5108722;28;20047;-74
2023/06/10 05:56:50;;;;;;;4.68;1.92;;;;;;;;;;5109123;28;20441;-75
2023/06/10 05:59:20;;;;;;;4.80;1.92;;;;;;;;;;5109484;28;20051;-74
2023/06/10 06:01:50;;;;;;;3.92;1.80;;;;;;;;;;5091008;28;20054;-74
2023/06/10 06:04:21;;;;;;;5.00;1.80;;;;;;;;;;5108485;28;20050;-73
2023/06/10 06:06:51;;;;;;;4.43;2.00;;;;;;;;;;5108921;28;20039;-74
2023/06/10 06:09:21;;;;;;;2.58;1.80;;;;;;;;;;5090262;28;20066;-74
2023/06/10 06:11:51;;;;;;;8.15;2.08;;;;;;;;;;5109034;28;20040;-74
2023/06/10 06:14:22;;;;;;;6.40;2.28;;;;;;;;;;5108744;28;20040;-74
2023/06/10 06:16:52;;;;;;;5.72;2.30;;;;;;;;;;5090789;28;20534;-75
2023/06/10 06:19:22;;;;;;;5.70;2.10;;;;;;;;;;5090985;28;20040;-74
2023/06/10 06:21:54;;;;;;;4.45;1.92;;;;;;;;;;5108541;28;20074;-75
2023/06/10 06:24:24;;;;;;;5.75;2.03;;;;;;;;;;5108232;28;20067;-74
2023/06/10 06:26:55;;;;;;;3.97;2.20;;;;;;;;;;5107568;28;20513;-74
2023/06/10 06:29:26;;;;;;;4.00;1.90;;;;;;;;;;5108201;28;20058;-75
2023/06/10 06:31:57;;;;;;;7.57;2.00;;;;;;;;;;5108591;28;20044;-75
2023/06/10 06:34:28;;;;;;;5.72;2.45;;;;;;;;;;5090555;28;20075;-73
2023/06/10 06:36:58;;;;;;;6.93;2.33;;;;;;;;;;5108662;28;20520;-74
2023/06/10 06:39:31;;;;;;;4.53;2.03;;;;;;;;;;5090222;28;20055;-74
2023/06/10 06:42:02;;;;;;;8.20;2.00;;;;;;;;;;5089622;28;20048;-75
2023/06/10 06:44:56;;;;;;;3.60;2.00;;;;;;;;;;5106985;28;20414;-75
2023/06/10 06:47:26;;;;;;;3.47;1.80;;;;;;;;;;5107904;28;20052;-74
2023/06/10 06:49:56;;;;;;;6.22;2.03;;;;;;;;;;5108088;28;20047;-73
2023/06/10 06:52:27;;;;;;;4.80;2.00;;;;;;;;;;5107717;28;20509;-74
2023/06/10 06:54:58;;;;;;;6.05;2.15;;;;;;;;;;5107696;28;20058;-73
2023/06/10 06:57:28;;;;;;;2.63;1.98;;;;;;;;;;5107772;28;20048;-75
2023/06/10 07:00:00;;;;;;;6.18;2.08;;;;;;;;;;5089887;28;20058;-74
2023/06/10 07:02:33;;;;;;;3.22;1.88;;;;;;;;;;5107469;28;20043;-75
2023/06/10 07:05:03;;;;;;;3.72;2.17;;;;;;;;;;5107638;28;20055;-74
2023/06/10 07:07:34;;;;;;;6.30;2.28;;;;;;;;;;5088754;28;20059;-74
2023/06/10 07:10:05;;;;;;;5.13;1.83;;;;;;;;;;5107715;28;20046;-73
2023/06/10 07:12:36;;;;;;;3.72;2.22;;;;;;;;;;5107548;28;20398;-73
2023/06/10 07:15:08;;;;;;;7.47;2.40;;;;;;;;;;5107626;28;20047;-74
2023/06/10 07:17:40;;;;;;;5.97;2.25;;;;;;;;;;5089186;28;20078;-74
2023/06/10 07:20:11;;;;;;;4.75;2.13;;;;;;;;;;5088662;28;20058;-75
2023/06/10 07:22:44;;;;;;;3.97;1.88;;;;;;;;;;5107218;28;20047;-73
2023/06/10 07:25:16;;;;;;;5.22;2.25;;;;;;;;;;5089496;28;20444;-74
2023/06/10 07:27:46;;;;;;;3.90;2.15;;;;;;;;;;5106798;28;20043;-74
2023/06/10 07:30:16;;;;;;;3.08;1.88;;;;;;;;;;5106446;28;20442;-74
2023/06/10 07:32:46;;;;;;;4.28;2.22;;;;;;;;;;5106845;28;20051;-73
2023/06/10 07:35:17;;;;;;;3.28;1.95;;;;;;;;;;5106974;28;20055;-74
2023/06/10 07:37:47;;;;;;;6.15;1.77;;;;;;;;;;5107014;28;20044;-73
2023/06/10 07:40:17;;;;;;;3.47;1.80;;;;;;;;;;5106755;28;20050;-73
2023/06/10 07:42:47;;;;;;;2.92;1.90;;;;;;;;;;5106811;28;20449;-74
2023/06/10 07:45:17;;;;;;;3.70;1.85;;;;;;;;;;5106855;28;20079;-73
2023/06/10 07:47:48;;;;;;;5.45;2.00;;;;;;;;;;5106477;28;20490;-74
2023/06/10 07:50:19;;;;;;;3.00;1.80;;;;;;;;;;5106210;28;20805;-75
2023/06/10 07:52:50;;;;;;;6.25;1.92;;;;;;;;;;5106060;28;20051;-75
2023/06/10 07:55:20;;;;;;;4.30;1.80;;;;;;;;;;5106379;28;20054;-73
2023/06/10 07:57:51;;;;;;;3.05;1.88;;;;;;;;;;5088936;28;20050;-74
2023/06/10 08:00:22;;;;;;;5.20;2.03;;;;;;;;;;5106751;28;20615;-75
2023/06/10 08:02:52;;;;;;;4.63;1.90;;;;;;;;;;5106575;28;20070;-74
2023/06/10 08:05:22;;;;;;;3.08;1.55;;;;;;;;;;5087008;28;20058;-74
2023/06/10 08:07:53;;;;;;;3.35;1.73;;;;;;;;;;5106141;28;20062;-75
2023/06/10 08:10:24;;;;;;;3.72;1.80;;;;;;;;;;5106464;28;20044;-75
2023/06/10 08:12:55;;;;;;;2.85;1.85;;;;;;;;;;5087279;28;20055;-74
2023/06/10 08:15:25;;;;;;;3.33;1.77;;;;;;;;;;5106383;28;20052;-74
2023/06/10 08:17:56;;;;;;;3.15;1.80;;;;;;;;;;5106252;28;20042;-73
2023/06/10 08:20:28;;;;;;;4.63;1.80;;;;;;;;;;5105824;28;20058;-74
2023/06/10 08:22:58;;;;;;;6.82;2.00;;;;;;;;;;5087618;28;20422;-75
2023/06/10 08:25:29;;;;;;;4.97;1.70;;;;;;;;;;5105840;28;20051;-74
2023/06/10 08:27:59;;;;;;;4.72;1.50;;;;;;;;;;5105401;28;20051;-74
2023/06/10 08:30:30;;;;;;;5.00;2.33;;;;;;;;;;5105981;28;20105;-73
2023/06/10 08:33:02;;;;;;;4.22;1.90;;;;;;;;;;5087504;28;20052;-74
2023/06/10 08:35:32;;;;;;;5.75;2.22;;;;;;;;;;5106176;28;20051;-74
2023/06/10 08:38:02;;;;;;;5.30;2.00;;;;;;;;;;5105999;28;20044;-74
2023/06/10 08:40:34;;;;;;;6.80;2.30;;;;;;;;;;5086502;28;20051;-73
2023/06/10 08:43:17;;;;;;;5.63;2.20;;;;;;;;;;5105480;28;20058;-74
2023/06/10 08:45:49;;;;;;;6.28;2.05;;;;;;;;;;5105704;28;20058;-73
2023/06/10 08:48:20;;;;;;;5.28;1.90;;;;;;;;;;5106058;28;20505;-74
2023/06/10 08:50:53;;;;;;;4.35;2.00;;;;;;;;;;5087352;28;20047;-73
2023/06/10 08:53:27;;;;;;;6.53;2.00;;;;;;;;;;5105618;28;20040;-74
2023/06/10 08:56:01;;;;;;;13.10;2.58;;;;;;;;;;5105339;28;20055;-73
2023/06/10 08:58:35;;;;;;;9.07;2.08;;;;;;;;;;5105532;28;20054;-74
2023/06/10 09:01:05;;;;;;;9.40;2.47;;;;;;;;;;5105170;28;20051;-74
2023/06/10 09:03:38;;;;;;;4.60;2.17;;;;;;;;;;5088028;28;20044;-73
2023/06/10 09:06:10;;;;;;;8.57;2.20;;;;;;;;;;5105501;28;20044;-74
2023/06/10 09:08:42;;;;;;;10.10;2.70;;;;;;;;;;5105508;28;20402;-74
2023/06/10 09:11:12;;;;;;;12.43;3.13;;;;;;;;;;5105568;28;20047;-74
2023/06/10 09:13:43;;;;;;;4.20;2.85;;;;;;;;;;5087455;28;20048;-74
2023/06/10 09:16:15;;;;;;;3.17;2.00;;;;;;;;;;5105046;28;20044;-73
2023/06/10 09:18:45;;;;;;;9.32;2.35;;;;;;;;;;5105223;28;20054;-74
2023/06/10 09:21:15;;;;;;;7.20;2.20;;;;;;;;;;5105652;28;20047;-74
2023/06/10 09:23:46;;;;;;;4.45;2.40;;;;;;;;;;5105742;28;20056;-74
2023/06/10 09:26:17;;;;;;;5.32;2.97;;;;;;;;;;5109398;28;20402;-73
2023/06/10 09:28:51;;;;;;;6.88;2.80;;;;;;;;;;5108977;28;20055;-74
2023/06/10 09:31:22;;;;;;;4.40;2.30;;;;;;;;;;5109163;28;20051;-75
2023/06/10 09:33:53;;;;;;;4.47;2.55;;;;;;;;;;5109117;28;20043;-74
2023/06/10 09:36:24;;;;;;;7.97;2.67;;;;;;;;;;5090575;28;20051;-74
2023/06/10 09:38:57;;;;;;;7.82;2.67;;;;;;;;;;5109098;28;20047;-73
2023/06/10 09:41:34;;;;;;;8.32;2.80;;;;;;;;;;5109234;28;20498;-74
2023/06/10 09:44:17;;;;;;;5.57;2.60;;;;;;;;;;5109066;28;20044;-75
2023/06/10 09:46:51;;;;;;;9.43;2.53;;;;;;;;;;5108596;28;20534;-76
2023/06/10 09:49:22;;;;;;;10.02;2.40;;;;;;;;;;5108880;28;20043;-73
2023/06/10 09:51:55;;;;;;;12.73;4.13;;;;;;;;;;5108187;28;20517;-74
2023/06/10 09:54:32;;;;;;;10.73;3.33;;;;;;;;;;5108811;28;20506;-74
2023/06/10 09:57:11;;;;;;;7.55;2.75;;;;;;;;;;5108847;28;20051;-74
2023/06/10 09:59:42;;;;;;;10.38;2.75;;;;;;;;;;5108590;28;20060;-74
2023/06/10 10:02:17;;;;;;;10.00;2.38;;;;;;;;;;5089907;28;20062;-74
2023/06/10 10:04:48;;;;;;;15.05;3.17;;;;;;;;;;5107087;28;20059;-75
2023/06/10 10:07:20;;;;;;;8.75;2.42;;;;;;;;;;5108563;28;20047;-75
2023/06/10 10:09:50;;;;;;;5.90;2.42;;;;;;;;;;5108696;28;20054;-75
2023/06/10 10:12:22;;;;;;;8.27;2.50;;;;;;;;;;5108136;28;20054;-75
2023/06/10 10:14:55;;;;;;;12.02;2.60;;;;;;;;;;5108580;28;20055;-74
2023/06/10 10:17:26;;;;;;;15.73;2.95;;;;;;;;;;5108093;28;20048;-74
2023/06/10 10:20:05;;;;;;;10.20;2.92;;;;;;;;;;5108250;28;20047;-74
2023/06/10 10:22:39;;;;;;;8.30;2.85;;;;;;;;;;5108328;28;20048;-76
2023/06/10 10:25:12;;;;;;;7.38;3.25;;;;;;;;;;5108196;28;20369;-75
2023/06/10 10:27:55;;;;;;;9.65;3.22;;;;;;;;;;5108371;28;20054;-82
2023/06/10 10:30:27;;;;;;;5.97;2.75;;;;;;;;;;5108297;28;20055;-74
2023/06/10 10:33:08;;;;;;;9.77;2.80;;;;;;;;;;5107655;28;20816;-75
2023/06/10 10:35:41;;;;;;;5.72;2.42;;;;;;;;;;5108018;28;20040;-74
2023/06/10 10:38:12;;;;;;;12.63;3.38;;;;;;;;;;5107482;28;20052;-75
2023/06/10 10:40:44;;;;;;;5.65;2.75;;;;;;;;;;5088673;28;20052;-75
2023/06/10 10:43:16;;;;;;;9.25;2.75;;;;;;;;;;5108046;28;20040;-75
2023/06/10 10:45:57;;;;;;;5.00;2.40;;;;;;;;;;5107512;28;20055;-74
2023/06/10 10:48:37;;;;;;;11.55;2.78;;;;;;;;;;5108403;28;20058;-75
2023/06/10 10:51:09;;;;;;;13.77;2.78;;;;;;;;;;5107730;28;20051;-75
2023/06/10 10:53:40;;;;;;;9.50;2.60;;;;;;;;;;5107486;28;20055;-75
2023/06/10 10:56:17;;;;;;;11.77;2.75;;;;;;;;;;5107179;28;20054;-78
2023/06/10 10:59:10;;;;;;;12.45;2.70;;;;;;;;;;5107523;28;20043;-75
2023/06/10 11:01:41;;;;;;;10.65;3.08;;;;;;;;;;5107773;28;20036;-74
2023/06/10 11:04:13;;;;;;;5.32;2.75;;;;;;;;;;5107724;28;20051;-73
2023/06/10 11:06:53;;;;;;;3.92;2.30;;;;;;;;;;5107309;28;20406;-73
2023/06/10 11:09:30;;;;;;;7.05;2.72;;;;;;;;;;5107481;28;20052;-73
2023/06/10 11:12:00;;;;;;;7.07;2.92;;;;;;;;;;5106966;28;20506;-73
2023/06/10 11:14:32;;;;;;;8.57;2.78;;;;;;;;;;5107416;28;20058;-73
2023/06/10 11:17:20;;;;;;;13.10;3.30;;;;;;;;;;5106953;28;20056;-74
2023/06/10 11:19:51;;;;;;;11.25;3.25;;;;;;;;;;5107585;28;20040;-73
2023/06/10 11:22:21;;;;;;;8.18;2.80;;;;;;;;;;5107108;28;20494;-73
2023/06/10 11:24:52;;;;;;;8.18;2.60;;;;;;;;;;5106766;28;20044;-74
2023/06/10 11:27:24;;;;;;;8.63;3.00;;;;;;;;;;5106531;28;20058;-74
2023/06/10 11:30:07;;;;;;;12.52;3.60;;;;;;;;;;5107201;28;20048;-78
2023/06/10 11:32:39;;;;;;;7.30;3.33;;;;;;;;;;5087993;28;20636;-74
2023/06/10 11:35:10;;;;;;;9.50;4.13;;;;;;;;;;5106939;28;20048;-74
2023/06/10 11:37:42;;;;;;;13.75;3.30;;;;;;;;;;5106803;28;20047;-74
2023/06/10 11:40:13;;;;;;;20.10;3.50;;;;;;;;;;5107249;28;20054;-77
2023/06/10 11:42:44;;;;;;;10.70;2.65;;;;;;;;;;5106726;28;20521;-75
2023/06/10 11:45:16;;;;;;;23.73;3.13;;;;;;;;;;5106639;28;20402;-74
2023/06/10 11:48:00;;;;;;;11.23;2.85;;;;;;;;;;5106576;28;20058;-74
2023/06/10 11:50:33;;;;;;;16.10;2.90;;;;;;;;;;5106584;28;20054;-74
2023/06/10 11:53:04;;;;;;;20.42;3.67;;;;;;;;;;5106801;28;20051;-74
2023/06/10 11:55:47;;;;;;;24.55;3.00;;;;;;;;;;5106083;28;20043;-74
2023/06/10 11:58:21;;;;;;;10.82;2.67;;;;;;;;;;5106315;28;20044;-77
2023/06/10 12:00:54;;;;;;;6.97;2.05;;;;;;;;;;5105688;28;20050;-74
2023/06/10 12:03:25;;;;;;;7.57;2.30;;;;;;;;;;5105668;28;20060;-75
2023/06/10 12:06:02;;;;;;;7.15;2.00;;;;;;;;;;5106083;28;20051;-75
2023/06/10 12:08:41;;;;;;;13.25;3.42;;;;;;;;;;5106244;28;20054;-84
2023/06/10 12:11:12;;;;;;;4.20;1.83;;;;;;;;;;5088355;28;20055;-85
2023/06/10 12:13:52;;;;;;;7.78;1.95;;;;;;;;;;5106549;28;20070;-85
2023/06/10 12:16:25;;;;;;;10.13;2.22;;;;;;;;;;5106074;28;20062;-75
2023/06/10 12:19:03;;;;;;;8.07;2.67;;;;;;;;;;5105730;28;20043;-74
2023/06/10 12:21:37;;;;;;;4.70;3.53;;;;;;;;;;5105234;28;20050;-74
2023/06/10 12:24:10;;;;;;;19.95;2.92;;;;;;;;;;5087620;28;20040;-73
2023/06/10 12:26:44;;;;;;;9.30;1.73;;;;;;;;;;5106331;28;20047;-75
2023/06/10 12:29:16;;;;;;;15.65;2.13;;;;;;;;;;5105758;28;20059;-76
2023/06/10 12:31:57;;;;;;;4.32;1.95;;;;;;;;;;5105638;28;20044;-79
2023/06/10 12:34:36;;;;;;;5.63;2.05;;;;;;;;;;5105967;28;20047;-76
2023/06/10 12:37:14;;;;;;;3.00;1.67;;;;;;;;;;5105600;28;20044;-79
2023/06/10 12:39:56;;;;;;;5.30;1.77;;;;;;;;;;5087772;28;20050;-76
2023/06/10 12:42:27;;;;;;;4.35;1.80;;;;;;;;;;5105682;28;20043;-76
2023/06/10 12:45:01;;;;;;;5.32;2.17;;;;;;;;;;5105937;28;20532;-75
2023/06/10 12:47:34;;;;;;;4.28;1.70;;;;;;;;;;5105357;28;20048;-76
2023/06/10 12:50:07;;;;;;;6.15;2.30;;;;;;;;;;5105896;28;20047;-76
2023/06/10 12:52:39;;;;;;;9.25;3.00;;;;;;;;;;5106013;28;20047;-75
2023/06/10 12:55:10;;;;;;;4.35;1.90;;;;;;;;;;5105258;28;20063;-78
2023/06/10 12:57:51;;;;;;;6.68;2.28;;;;;;;;;;5105837;28;20047;-75
2023/06/10 13:00:22;;;;;;;6.38;2.75;;;;;;;;;;5105451;28;20039;-75
2023/06/10 13:02:56;;;;;;;5.72;2.05;;;;;;;;;;5105434;28;20063;-76
2023/06/10 13:05:26;;;;;;;8.10;2.05;;;;;;;;;;5105134;28;20051;-75
2023/06/10 13:07:56;;;;;;;5.90;1.98;;;;;;;;;;5105169;28;20051;-76
2023/06/10 13:10:28;;;;;;;6.95;2.03;;;;;;;;;;5087699;28;20035;-83
2023/06/10 13:12:59;;;;;;;10.68;2.75;;;;;;;;;;5105449;28;20050;-75
2023/06/10 13:15:29;;;;;;;3.85;1.83;;;;;;;;;;5106116;28;20051;-74
2023/06/10 13:17:59;;;;;;;4.22;2.08;;;;;;;;;;5105149;28;20054;-74
2023/06/10 13:20:30;;;;;;;4.40;1.90;;;;;;;;;;5105016;28;20055;-74
2023/06/10 13:23:02;;;;;;;9.20;2.72;;;;;;;;;;5105957;28;20047;-74
2023/06/10 13:25:32;;;;;;;10.20;2.50;;;;;;;;;;5105815;28;20102;-79
2023/06/10 13:28:04;;;;;;;5.18;2.13;;;;;;;;;;5105456;28;20522;-75
2023/06/10 13:30:35;;;;;;;27.13;3.35;;;;;;;;;;5104893;28;20048;-75
2023/06/10 13:33:07;;;;;;;4.03;2.10;;;;;;;;;;5086936;28;20051;-75
2023/06/10 13:35:38;;;;;;;11.13;2.92;;;;;;;;;;5105449;28;20048;-76
2023/06/10 13:38:08;;;;;;;6.20;2.33;;;;;;;;;;5086929;28;20056;-76
2023/06/10 13:40:38;;;;;;;4.93;2.03;;;;;;;;;;5104922;28;20059;-76
2023/06/10 13:43:09;;;;;;;5.38;2.20;;;;;;;;;;5105118;28;20399;-76
2023/06/10 13:45:40;;;;;;;4.68;2.05;;;;;;;;;;5104968;28;20036;-76
2023/06/10 13:48:10;;;;;;;6.05;2.13;;;;;;;;;;5105440;28;20051;-78
2023/06/10 13:50:45;;;;;;;5.50;2.22;;;;;;;;;;5105159;28;20055;-76
2023/06/10 13:53:15;;;;;;;6.63;2.42;;;;;;;;;;5104630;28;20035;-82
2023/06/10 13:55:47;;;;;;;10.80;3.30;;;;;;;;;;5103710;28;20043;-78
2023/06/10 13:58:18;;;;;;;11.05;3.30;;;;;;;;;;5104832;28;20052;-76
2023/06/10 14:00:47;;;;;;;7.97;2.70;;;;;;;;;;5104634;28;20062;-74
2023/06/10 14:03:18;;;;;;;4.15;2.40;;;;;;;;;;5104197;28;20048;-76
2023/06/10 14:05:49;;;;;;;4.13;2.60;;;;;;;;;;5104375;28;20055;-76
2023/06/10 14:08:20;;;;;;;13.45;3.67;;;;;;;;;;5104174;28;20055;-75
2023/06/10 14:10:51;;;;;;;5.18;2.50;;;;;;;;;;5085960;28;20051;-76
2023/06/10 14:13:23;;;;;;;10.93;2.42;;;;;;;;;;5107748;28;20055;-74
2023/06/10 14:15:55;;;;;;;9.63;2.33;;;;;;;;;;5107495;28;20043;-75
2023/06/10 14:18:26;;;;;;;5.35;2.13;;;;;;;;;;5107557;28;20047;-76
2023/06/10 14:20:56;;;;;;;10.02;2.53;;;;;;;;;;5108202;28;20047;-74
2023/06/10 14:23:27;;;;;;;6.18;2.10;;;;;;;;;;5108545;28;20047;-75
2023/06/10 14:25:58;;;;;;;11.65;2.97;;;;;;;;;;5088876;28;20062;-75
2023/06/10 14:28:30;;;;;;;13.90;2.20;;;;;;;;;;5111155;28;20050;-77
2023/06/10 14:31:00;;;;;;;5.63;2.20;;;;;;;;;;5111727;28;20035;-75
2023/06/10 14:33:31;;;;;;;7.43;2.80;;;;;;;;;;5089912;28;20098;-78
2023/06/10 14:36:02;;;;;;;9.80;2.35;;;;;;;;;;5107585;28;20433;-75
2023/06/10 14:38:34;;;;;;;9.25;2.92;;;;;;;;;;5107331;28;20048;-78
2023/06/10 14:41:04;;;;;;;4.85;2.53;;;;;;;;;;5107548;28;20052;-76
2023/06/10 14:43:35;;;;;;;5.35;2.10;;;;;;;;;;5107735;28;20043;-74
2023/06/10 14:46:06;;;;;;;3.13;1.88;;;;;;;;;;5111703;28;20051;-75
2023/06/10 14:48:37;;;;;;;6.28;1.77;;;;;;;;;;5112219;28;20048;-76
2023/06/10 14:51:07;;;;;;;16.73;4.18;;;;;;;;;;5112129;28;20483;-76
2023/06/10 14:53:37;;;;;;;17.35;2.40;;;;;;;;;;5094102;28;20036;-76
2023/06/10 14:56:09;;;;;;;2.65;1.55;;;;;;;;;;5112177;28;20063;-76
2023/06/10 14:58:41;;;;;;;3.75;2.20;;;;;;;;;;5109442;28;20121;-76
2023/06/10 15:01:11;;;;;;;7.40;2.30;;;;;;;;;;5107741;28;20052;-75
2023/06/10 15:03:41;;;;;;;4.95;1.98;;;;;;;;;;5107713;28;20403;-77
2023/06/10 15:06:12;;;;;;;8.82;2.20;;;;;;;;;;5107175;28;20493;-76
2023/06/10 15:08:43;;;;;;;4.50;2.15;;;;;;;;;;5107200;28;20051;-74
2023/06/10 15:11:17;;;;;;;6.80;1.92;;;;;;;;;;5107607;28;20050;-79